Lynge, Denmark
Current Conditions -  °F | °C
As of 6:50 PM on Monday 24 Nov 2014 (Local Time) from EKRK Reporting Station
Broken Clouds Broken Clouds  
Wind Chill: 38°   Ceiling: 5000
Heat Index: 45°   Visibility: 6mi
Dew Point: 41°   Wind: 13mph
Humidity: 87%   Direction: 230°SW
Pressure: 30.06"   Gusts: NA
Location:  55.84°N, 12.28°E
Report Text: EKRK 241750Z AUTO 23011KT 9999NDV FEW032/// BKN050///BKN130/// 07/05 Q1018
Loading
Personal Weather Stations






























Interactive Weather Map New forecast layout! Learn more

10-Day Weather Forecast

Advertisements
Track Severe Weather on mobile